Time;durP1;ratioP1;P1;durP2;ratioP2;P2;SDS_P1;SDS_P2;PMS_P1;PMS_P2;Temp;Humidity;BMP_temperature;BMP_pressure;BME280_temperature;BME280_humidity;BME280_pressure;Samples;Min_cycle;Max_cycle;Signal;HPM_P1;HPM_P2
2023/07/10 00:01:58;;;;;;;2.85;1.50;;;;;;;32.68;28.27;100441.69;5060911;28;20049;-76
2023/07/10 00:04:27;;;;;;;2.78;1.65;;;;;;;32.70;28.77;100439.78;5068417;28;20672;-80
2023/07/10 00:06:56;;;;;;;3.25;1.50;;;;;;;32.69;27.70;100435.41;5065011;28;20135;-86
2023/07/10 00:09:25;;;;;;;2.13;1.35;;;;;;;32.72;28.62;100432.50;5070326;28;20048;-80
2023/07/10 00:11:53;;;;;;;5.55;1.58;;;;;;;32.76;27.95;100431.34;5061625;28;20051;-81
2023/07/10 00:14:30;;;;;;;2.25;1.40;;;;;;;32.70;28.11;100431.75;5059562;28;20048;-80
2023/07/10 00:16:58;;;;;;;1.90;1.30;;;;;;;32.45;27.87;100434.34;5056410;28;20040;-73
2023/07/10 00:19:27;;;;;;;3.70;1.50;;;;;;;32.33;28.79;100428.00;5073023;28;20112;-79
2023/07/10 00:21:56;;;;;;;3.97;1.10;;;;;;;32.20;27.88;100432.44;5059168;28;20049;-78
2023/07/10 00:24:32;;;;;;;5.40;1.50;;;;;;;32.07;29.19;100429.69;5065016;28;20044;-75
2023/07/10 00:27:00;;;;;;;3.05;1.20;;;;;;;31.99;28.89;100432.03;5064390;28;20520;-76
2023/07/10 00:29:33;;;;;;;2.72;1.30;;;;;;;31.92;28.58;100432.41;5061361;28;20616;-76
2023/07/10 00:32:07;;;;;;;2.78;1.60;;;;;;;31.91;29.92;100428.00;5062727;28;20084;-77
2023/07/10 00:34:36;;;;;;;3.78;1.45;;;;;;;31.87;29.29;100426.50;5077510;27;20044;-79
2023/07/10 00:37:05;;;;;;;1.92;1.10;;;;;;;31.76;28.65;100428.16;5071756;28;20082;-76
2023/07/10 00:39:37;;;;;;;4.63;1.25;;;;;;;31.74;28.73;100422.88;5077081;28;20041;-80
2023/07/10 00:42:12;;;;;;;1.50;1.20;;;;;;;31.68;28.21;100424.16;5071261;28;20405;-77
2023/07/10 00:44:47;;;;;;;1.65;1.17;;;;;;;31.62;28.76;100429.03;5077413;28;20079;-78
2023/07/10 00:47:20;;;;;;;4.20;1.20;;;;;;;31.62;28.64;100429.88;5080488;28;20135;-81
2023/07/10 00:49:54;;;;;;;2.65;1.20;;;;;;;31.56;28.98;100426.75;5078264;28;20052;-74
2023/07/10 00:52:27;;;;;;;2.03;1.05;;;;;;;31.47;28.94;100431.72;5076843;28;20124;-78
2023/07/10 00:54:59;;;;;;;1.40;1.13;;;;;;;31.52;29.22;100434.13;5088083;28;20041;-82
2023/07/10 00:57:38;;;;;;;1.90;0.98;;;;;;;31.58;28.71;100444.41;5072980;28;20049;-81
2023/07/10 01:00:19;;;;;;;3.70;1.20;;;;;;;31.52;29.51;100440.31;5087016;28;20101;-80
2023/07/10 01:02:48;;;;;;;1.83;1.13;;;;;;;31.50;29.78;100444.91;5085915;28;20037;-78
2023/07/10 01:05:19;;;;;;;4.03;1.20;;;;;;;31.38;29.70;100442.94;5086426;28;20045;-80
2023/07/10 01:07:52;;;;;;;1.53;0.97;;;;;;;31.36;29.55;100447.56;5080976;28;20473;-78
2023/07/10 01:10:21;;;;;;;1.70;1.00;;;;;;;31.29;30.28;100446.19;5070342;28;20079;-77
2023/07/10 01:12:50;;;;;;;3.72;0.98;;;;;;;31.24;30.59;100448.28;5064602;28;20040;-80
2023/07/10 01:15:20;;;;;;;1.77;0.98;;;;;;;31.19;31.17;100453.91;5063012;28;20049;-80
2023/07/10 01:17:49;;;;;;;2.20;0.82;;;;;;;31.05;30.84;100451.25;5066243;28;20049;-76
2023/07/10 01:20:33;;;;;;;1.67;1.20;;;;;;;31.00;31.19;100446.19;5063154;28;20068;-77
2023/07/10 01:23:05;;;;;;;1.73;1.13;;;;;;;30.97;31.35;100451.72;5068716;28;20048;-75
2023/07/10 01:25:39;;;;;;;3.42;1.25;;;;;;;30.89;31.07;100446.81;5071411;28;20041;-80
2023/07/10 01:28:09;;;;;;;2.45;1.20;;;;;;;30.78;31.55;100451.06;5067708;28;20537;-75
2023/07/10 01:30:43;;;;;;;5.38;1.23;;;;;;;30.66;31.09;100453.50;5062885;28;20077;-77
2023/07/10 01:33:17;;;;;;;2.78;1.02;;;;;;;30.60;31.57;100459.19;5067809;27;20048;-76
2023/07/10 01:35:51;;;;;;;4.30;1.10;;;;;;;30.50;31.89;100458.03;5039509;28;20517;-77
2023/07/10 01:38:29;;;;;;;1.33;1.10;;;;;;;30.39;31.57;100463.13;5044902;28;20056;-78
2023/07/10 01:41:01;;;;;;;1.77;0.93;;;;;;;30.31;31.50;100462.75;5046787;28;20041;-77
2023/07/10 01:43:30;;;;;;;3.70;1.10;;;;;;;30.26;31.74;100466.53;5042206;28;20049;-77
2023/07/10 01:46:00;;;;;;;2.10;0.90;;;;;;;30.22;31.00;100466.75;5048376;28;20137;-77
2023/07/10 01:48:29;;;;;;;2.75;0.90;;;;;;;30.16;31.22;100473.28;5044056;28;20080;-81
2023/07/10 01:50:59;;;;;;;1.60;0.90;;;;;;;30.08;31.29;100475.53;5047623;28;20044;-80
2023/07/10 01:53:29;;;;;;;2.22;0.93;;;;;;;29.93;31.78;100471.06;5048021;28;20045;-81
2023/07/10 01:55:58;;;;;;;6.38;1.00;;;;;;;29.83;32.09;100484.91;5051918;28;20595;-80
2023/07/10 01:58:29;;;;;;;4.95;0.93;;;;;;;29.53;32.29;100478.56;5037408;28;20041;-77
2023/07/10 02:00:57;;;;;;;1.42;0.80;;;;;;;29.34;33.30;100489.31;5037144;28;20045;-76
2023/07/10 02:03:26;;;;;;;5.45;1.00;;;;;;;29.18;33.81;100499.94;5046771;28;20061;-75
2023/07/10 02:05:54;;;;;;;1.58;0.90;;;;;;;29.02;33.98;100495.38;5050805;28;20122;-76
2023/07/10 02:08:25;;;;;;;5.28;1.13;;;;;;;28.85;34.54;100498.03;5038564;28;20049;-78
2023/07/10 02:10:55;;;;;;;2.30;1.00;;;;;;;28.74;34.69;100495.91;5052626;28;20411;-79
2023/07/10 02:13:24;;;;;;;4.05;1.52;;;;;;;28.50;34.79;100503.31;5043728;28;20191;-80
2023/07/10 02:15:53;;;;;;;1.60;0.90;;;;;;;28.40;35.11;100497.56;5051605;28;20045;-78
2023/07/10 02:18:22;;;;;;;2.50;0.93;;;;;;;28.37;35.00;100507.50;5048782;28;20057;-75
2023/07/10 02:20:53;;;;;;;4.68;0.98;;;;;;;28.30;35.30;100511.38;5039073;28;20473;-77
2023/07/10 02:23:22;;;;;;;4.27;1.30;;;;;;;28.23;34.71;100520.59;5034848;28;20053;-75
2023/07/10 02:25:50;;;;;;;4.82;0.98;;;;;;;28.12;35.10;100516.63;5038714;28;20056;-78
2023/07/10 02:28:20;;;;;;;2.35;0.95;;;;;;;28.04;35.11;100520.59;5035717;28;20539;-74
2023/07/10 02:30:49;;;;;;;3.03;1.08;;;;;;;27.96;35.08;100528.94;5038556;28;20049;-78
2023/07/10 02:33:19;;;;;;;4.88;1.02;;;;;;;27.81;35.46;100534.91;5054880;27;20387;-76
2023/07/10 02:35:47;;;;;;;3.30;0.82;;;;;;;27.65;35.94;100535.63;5043171;28;20045;-75
2023/07/10 02:38:16;;;;;;;2.28;0.90;;;;;;;27.30;36.72;100538.03;5034755;28;20097;-73
2023/07/10 02:40:45;;;;;;;1.60;0.90;;;;;;;27.07;36.93;100549.63;5045554;28;20053;-80
2023/07/10 02:43:14;;;;;;;4.53;1.20;;;;;;;26.86;37.53;100547.88;5030941;28;20049;-74
2023/07/10 02:45:44;;;;;;;4.45;0.93;;;;;;;26.68;37.79;100552.16;5042077;28;20049;-76
2023/07/10 02:48:13;;;;;;;6.20;0.90;;;;;;;26.63;37.99;100544.38;5047171;28;20049;-78
2023/07/10 02:50:41;;;;;;;0.88;0.70;;;;;;;26.53;38.08;100550.97;5042041;28;20045;-76
2023/07/10 02:53:12;;;;;;;4.22;0.80;;;;;;;26.43;37.97;100547.78;5041583;28;20056;-73
2023/07/10 02:55:42;;;;;;;4.97;0.88;;;;;;;26.39;38.47;100551.50;5036932;28;20058;-76
2023/07/10 02:58:10;;;;;;;1.55;0.65;;;;;;;26.24;38.56;100557.41;5048516;28;20048;-78
2023/07/10 03:00:39;;;;;;;1.73;1.02;;;;;;;26.21;38.59;100552.22;5041383;28;20049;-78
2023/07/10 03:03:09;;;;;;;1.60;0.90;;;;;;;26.13;38.87;100555.16;5047394;28;20560;-74
2023/07/10 03:05:38;;;;;;;2.25;0.98;;;;;;;25.96;38.68;100569.06;5048605;28;20045;-75
2023/07/10 03:08:07;;;;;;;4.55;0.80;;;;;;;25.82;39.20;100572.19;5053938;28;20103;-78
2023/07/10 03:10:36;;;;;;;5.55;1.02;;;;;;;25.66;39.05;100582.47;5047652;28;20554;-77
2023/07/10 03:13:04;;;;;;;2.10;1.08;;;;;;;25.48;39.60;100584.00;5042768;28;20077;-79
2023/07/10 03:15:33;;;;;;;1.42;0.70;;;;;;;25.43;40.29;100582.44;5052003;28;20044;-80
2023/07/10 03:18:04;;;;;;;6.63;0.90;;;;;;;25.43;40.75;100595.69;5048438;28;20041;-81
2023/07/10 03:20:34;;;;;;;1.13;0.87;;;;;;;25.42;39.90;100591.28;5045576;28;20064;-80
2023/07/10 03:23:03;;;;;;;5.50;1.02;;;;;;;25.39;39.75;100599.34;5048197;28;20049;-81
2023/07/10 03:25:32;;;;;;;2.47;1.08;;;;;;;25.39;40.20;100597.56;5048035;28;20044;-78
2023/07/10 03:28:02;;;;;;;1.63;0.65;;;;;;;25.42;40.77;100604.53;5050169;28;20056;-80
2023/07/10 03:30:31;;;;;;;0.65;0.65;;;;;;;25.42;40.09;100605.38;5043558;28;20052;-79
2023/07/10 03:32:59;;;;;;;1.42;0.70;;;;;;;25.38;39.96;100602.91;5046966;28;20116;-77
2023/07/10 03:35:28;;;;;;;1.25;0.85;;;;;;;25.17;39.95;100609.75;5065082;28;20434;-83
2023/07/10 03:37:59;;;;;;;2.83;1.00;;;;;;;25.08;40.18;100618.88;5059978;28;20033;-80
2023/07/10 03:40:27;;;;;;;1.02;0.70;;;;;;;25.01;40.40;100609.41;5069080;28;20045;-78
2023/07/10 03:42:56;;;;;;;5.25;1.00;;;;;;;24.96;40.53;100617.50;5072154;28;20049;-78
2023/07/10 03:45:25;;;;;;;2.65;0.80;;;;;;;24.90;40.40;100620.34;5077344;28;20052;-80
2023/07/10 03:47:53;;;;;;;1.42;0.90;;;;;;;24.75;40.42;100628.75;5073013;28;20067;-81
2023/07/10 03:50:22;;;;;;;1.95;1.00;;;;;;;24.62;41.11;100633.56;5076369;28;20056;-80
2023/07/10 03:52:51;;;;;;;2.25;0.88;;;;;;;24.55;42.16;100634.66;5080088;28;20047;-78
2023/07/10 03:55:21;;;;;;;1.08;0.65;;;;;;;24.49;41.61;100632.19;5084359;28;20044;-78
2023/07/10 03:57:49;;;;;;;1.95;0.70;;;;;;;24.44;41.26;100642.88;5084325;28;20045;-79
2023/07/10 04:00:18;;;;;;;1.67;0.82;;;;;;;24.38;41.68;100636.00;5080538;28;20032;-78
2023/07/10 04:02:47;;;;;;;0.80;0.60;;;;;;;24.34;42.28;100647.59;5073869;28;20048;-78
2023/07/10 04:05:17;;;;;;;1.45;0.70;;;;;;;24.21;41.89;100652.38;5069222;28;20048;-79
2023/07/10 04:07:46;;;;;;;1.52;0.90;;;;;;;24.02;42.38;100661.72;5059825;28;20106;-80
2023/07/10 04:10:15;;;;;;;4.53;0.82;;;;;;;23.92;42.09;100657.59;5069344;28;20048;-79
2023/07/10 04:12:45;;;;;;;1.30;0.80;;;;;;;23.88;42.99;100666.53;5059730;28;20056;-78
2023/07/10 04:15:14;;;;;;;1.33;0.80;;;;;;;23.81;42.91;100673.75;5061455;28;20053;-78
2023/07/10 04:17:43;;;;;;;2.25;1.10;;;;;;;23.71;43.06;100680.13;5063548;28;20529;-77
2023/07/10 04:20:12;;;;;;;2.13;0.70;;;;;;;23.53;43.02;100674.44;5067942;28;20088;-77
2023/07/10 04:22:40;;;;;;;2.17;0.80;;;;;;;23.39;43.04;100679.19;5058123;28;20525;-79
2023/07/10 04:25:10;;;;;;;2.35;0.68;;;;;;;23.26;43.43;100691.81;5060727;28;20056;-77
2023/07/10 04:27:38;;;;;;;4.80;0.70;;;;;;;23.12;43.30;100694.78;5061295;28;20139;-76
2023/07/10 04:30:14;;;;;;;0.77;0.60;;;;;;;23.05;44.15;100697.63;5066089;28;20053;-78
2023/07/10 04:32:43;;;;;;;1.08;0.55;;;;;;;22.97;44.25;100703.00;5065847;28;20044;-76
2023/07/10 04:35:12;;;;;;;2.03;0.82;;;;;;;22.87;44.19;100709.41;5060274;28;20053;-77
2023/07/10 04:37:41;;;;;;;1.15;0.68;;;;;;;22.77;44.55;100717.53;5063766;28;20588;-76
2023/07/10 04:40:11;;;;;;;1.42;0.88;;;;;;;22.66;44.91;100719.53;5060163;28;20060;-77
2023/07/10 04:42:39;;;;;;;1.50;0.70;;;;;;;22.58;44.96;100729.34;5060727;28;20049;-76
2023/07/10 04:45:10;;;;;;;2.95;0.82;;;;;;;22.46;45.89;100733.09;5061440;28;20048;-77
2023/07/10 04:47:39;;;;;;;0.80;0.77;;;;;;;22.30;45.64;100737.81;5068890;28;20056;-77
2023/07/10 04:50:08;;;;;;;2.58;0.82;;;;;;;22.02;46.42;100740.06;5080371;28;20116;-77
2023/07/10 04:52:37;;;;;;;0.60;0.60;;;;;;;21.75;47.29;100744.03;5061080;28;20048;-75
2023/07/10 04:55:07;;;;;;;1.20;0.60;;;;;;;21.68;47.62;100752.94;5064650;28;20130;-77
2023/07/10 04:57:35;;;;;;;1.25;0.57;;;;;;;21.53;47.64;100754.94;5064599;28;20055;-80
2023/07/10 05:00:05;;;;;;;1.15;0.75;;;;;;;21.38;48.10;100760.41;5061815;28;20048;-78
2023/07/10 05:02:35;;;;;;;1.23;0.70;;;;;;;21.23;48.52;100769.38;5063085;28;20138;-78
2023/07/10 05:05:03;;;;;;;1.45;0.77;;;;;;;21.06;48.84;100774.03;5067460;28;20057;-80
2023/07/10 05:07:32;;;;;;;1.33;0.60;;;;;;;20.86;49.59;100776.91;5067319;28;20052;-75
2023/07/10 05:10:00;;;;;;;1.48;0.60;;;;;;;20.56;50.26;100780.72;5070215;28;20045;-78
2023/07/10 05:12:29;;;;;;;3.60;0.52;;;;;;;20.39;50.32;100784.44;5070353;28;20047;-81
2023/07/10 05:14:57;;;;;;;1.73;0.40;;;;;;;20.28;50.88;100786.28;5069677;28;20129;-77
2023/07/10 05:17:26;;;;;;;1.55;0.68;;;;;;;20.21;50.98;100792.50;5071485;28;20044;-83
2023/07/10 05:19:56;;;;;;;1.00;0.68;;;;;;;20.14;51.18;100798.69;5071633;28;20490;-78
2023/07/10 05:22:24;;;;;;;1.70;0.50;;;;;;;19.98;51.95;100801.44;5065111;28;20089;-78
2023/07/10 05:24:53;;;;;;;0.28;0.28;;;;;;;19.87;52.02;100806.78;5071325;28;20048;-80
2023/07/10 05:27:29;;;;;;;1.13;0.50;;;;;;;19.79;52.22;100811.25;5065150;28;20063;-80
2023/07/10 05:29:58;;;;;;;3.03;0.55;;;;;;;19.74;52.95;100826.13;5067620;28;20067;-77
2023/07/10 05:32:26;;;;;;;0.50;0.43;;;;;;;19.63;52.46;100820.03;5067943;28;20075;-79
2023/07/10 05:34:56;;;;;;;0.93;0.50;;;;;;;19.57;52.83;100820.09;5075039;28;20099;-78
2023/07/10 05:37:27;;;;;;;0.63;0.50;;;;;;;19.45;53.76;100827.19;5070180;28;20052;-83
2023/07/10 05:39:56;;;;;;;0.68;0.55;;;;;;;19.24;54.31;100835.13;5071983;28;20052;-81
2023/07/10 05:42:25;;;;;;;0.60;0.50;;;;;;;19.18;54.41;100848.31;5080562;28;20029;-82
2023/07/10 05:44:54;;;;;;;0.90;0.50;;;;;;;19.05;55.30;100848.34;5070675;28;20067;-78
2023/07/10 05:47:27;;;;;;;1.73;0.50;;;;;;;18.98;55.18;100844.00;5073061;28;20041;-81
2023/07/10 05:49:57;;;;;;;0.85;0.55;;;;;;;18.90;56.79;100848.41;5068958;28;20072;-78
2023/07/10 05:52:26;;;;;;;2.58;0.65;;;;;;;18.74;56.79;100847.56;5065187;28;20281;-77
2023/07/10 05:54:55;;;;;;;0.68;0.50;;;;;;;18.68;57.12;100862.41;5062154;28;20708;-78
2023/07/10 05:57:24;;;;;;;0.38;0.28;;;;;;;18.58;57.65;100867.69;5068240;28;20048;-79
2023/07/10 05:59:52;;;;;;;0.52;0.30;;;;;;;18.45;57.69;100855.47;5061035;28;20132;-79
2023/07/10 06:02:21;;;;;;;0.95;0.57;;;;;;;18.49;57.32;100872.06;5063686;28;20057;-78
2023/07/10 06:04:49;;;;;;;0.40;0.40;;;;;;;18.46;57.50;100872.06;5066142;28;20529;-78
2023/07/10 06:07:19;;;;;;;0.43;0.28;;;;;;;18.44;57.43;100872.06;5065693;28;20498;-79
2023/07/10 06:09:48;;;;;;;1.90;0.38;;;;;;;18.40;57.62;100875.56;5070686;28;20047;-80
2023/07/10 06:12:17;;;;;;;0.28;0.22;;;;;;;18.35;58.18;100877.31;5063607;28;20041;-78
2023/07/10 06:14:45;;;;;;;0.45;0.30;;;;;;;18.32;58.86;100879.91;5064841;28;20055;-78
2023/07/10 06:17:14;;;;;;;1.17;0.32;;;;;;;18.27;58.60;100887.78;5064129;28;20052;-81
2023/07/10 06:19:43;;;;;;;0.68;0.40;;;;;;;18.25;58.70;100891.28;5068942;28;20049;-80
2023/07/10 06:22:13;;;;;;;0.65;0.50;;;;;;;18.21;58.79;100893.91;5065790;28;20057;-77
2023/07/10 06:24:44;;;;;;;0.77;0.40;;;;;;;18.15;58.81;100899.13;5065179;28;20044;-79
2023/07/10 06:27:12;;;;;;;3.15;0.43;;;;;;;18.13;59.23;100890.41;5070977;28;20624;-79
2023/07/10 06:29:41;;;;;;;0.40;0.40;;;;;;;18.15;58.76;100898.25;5064491;28;20064;-77
2023/07/10 06:32:10;;;;;;;0.20;0.20;;;;;;;18.14;58.43;100907.88;5065802;28;20048;-80
2023/07/10 06:34:39;;;;;;;1.65;0.40;;;;;;;18.13;58.97;100903.50;5079542;28;20037;-81
2023/07/10 06:37:07;;;;;;;0.65;0.35;;;;;;;18.09;58.98;100916.56;5077423;28;20094;-81
2023/07/10 06:39:36;;;;;;;0.40;0.30;;;;;;;18.05;59.38;100917.44;5079256;28;20044;-80
2023/07/10 06:42:07;;;;;;;1.00;0.43;;;;;;;18.00;59.58;100917.44;5068471;28;20060;-79
2023/07/10 06:44:35;;;;;;;0.60;0.22;;;;;;;17.94;59.82;100920.94;5075485;28;20094;-80
2023/07/10 06:47:04;;;;;;;2.72;0.50;;;;;;;17.97;59.58;100925.28;5086530;28;20060;-79
2023/07/10 06:49:32;;;;;;;0.55;0.40;;;;;;;17.98;59.06;100927.94;5083240;28;20114;-80
2023/07/10 06:52:01;;;;;;;1.17;0.43;;;;;;;18.01;59.55;100937.53;5077940;28;20588;-79
2023/07/10 06:54:30;;;;;;;0.43;0.43;;;;;;;18.00;59.23;100933.16;5070390;28;20206;-79
2023/07/10 06:56:59;;;;;;;0.38;0.30;;;;;;;17.98;59.48;100937.50;5068777;28;20409;-80
2023/07/10 06:59:29;;;;;;;0.32;0.30;;;;;;;17.92;60.02;100945.38;5067125;28;20040;-78
2023/07/10 07:01:57;;;;;;;2.90;0.50;;;;;;;17.81;61.32;100945.31;5065545;28;20063;-79
2023/07/10 07:04:26;;;;;;;0.38;0.35;;;;;;;17.71;61.39;100952.25;5066814;28;20090;-79
2023/07/10 07:06:55;;;;;;;0.40;0.20;;;;;;;17.67;61.43;100952.22;5063517;28;20052;-78
2023/07/10 07:09:24;;;;;;;0.70;0.32;;;;;;;17.62;61.41;100953.97;5059932;28;20055;-79
2023/07/10 07:11:52;;;;;;;0.47;0.47;;;;;;;17.63;61.72;100956.56;5063156;28;20040;-79
2023/07/10 07:14:21;;;;;;;0.70;0.50;;;;;;;17.64;61.13;100955.72;5062883;28;20114;-79
2023/07/10 07:16:51;;;;;;;0.75;0.40;;;;;;;17.62;62.18;100957.44;5064716;28;20040;-78
2023/07/10 07:19:19;;;;;;;1.88;0.70;;;;;;;17.53;62.34;100962.66;5065997;28;20055;-78
2023/07/10 07:21:48;;;;;;;3.15;0.50;;;;;;;17.49;62.15;100966.97;5067915;28;20604;-80
2023/07/10 07:24:23;;;;;;;0.75;0.50;;;;;;;17.50;62.52;100962.63;5063580;28;20049;-80
2023/07/10 07:26:51;;;;;;;0.95;0.50;;;;;;;17.51;62.29;100967.00;5066166;28;20040;-80
2023/07/10 07:29:20;;;;;;;0.40;0.40;;;;;;;17.49;62.68;100966.13;5079718;28;20045;-80
2023/07/10 07:31:50;;;;;;;0.50;0.40;;;;;;;17.47;62.86;100967.84;5067240;28;20544;-78
2023/07/10 07:34:18;;;;;;;0.40;0.30;;;;;;;17.43;63.63;100963.47;5068931;28;20522;-78
2023/07/10 07:36:47;;;;;;;9.88;0.75;;;;;;;17.36;62.89;100968.69;5062875;28;20101;-78
2023/07/10 07:39:17;;;;;;;0.90;0.50;;;;;;;17.32;63.69;100972.13;5065378;28;20056;-79
2023/07/10 07:41:46;;;;;;;1.02;0.40;;;;;;;17.28;63.71;100954.69;5064687;28;20055;-79
2023/07/10 07:44:14;;;;;;;0.55;0.43;;;;;;;17.27;63.92;100967.72;5067246;28;20040;-79
2023/07/10 07:46:44;;;;;;;0.63;0.40;;;;;;;17.26;64.16;100964.25;5066386;28;20048;-80
2023/07/10 07:49:14;;;;;;;0.52;0.50;;;;;;;17.24;63.14;100963.38;5066500;28;20559;-79
2023/07/10 07:51:43;;;;;;;1.25;0.50;;;;;;;17.22;63.67;100967.72;5060637;28;20518;-80
2023/07/10 07:54:14;;;;;;;0.43;0.28;;;;;;;17.21;63.62;100970.34;5061104;28;20070;-80
2023/07/10 07:56:46;;;;;;;2.28;0.50;;;;;;;17.19;63.37;100975.53;5063605;28;20052;-80
2023/07/10 07:59:16;;;;;;;0.40;0.40;;;;;;;17.15;63.40;100973.78;5064193;28;20544;-80
2023/07/10 08:01:44;;;;;;;0.52;0.40;;;;;;;17.13;64.17;100967.66;5063512;28;20051;-80
2023/07/10 08:04:14;;;;;;;0.20;0.20;;;;;;;17.08;63.99;100975.47;5069002;28;20041;-80
2023/07/10 08:06:45;;;;;;;1.27;0.50;;;;;;;17.07;64.00;100980.72;5066560;28;20041;-80
2023/07/10 08:09:14;;;;;;;0.35;0.30;;;;;;;17.04;63.63;100978.06;5067349;28;20063;-79
2023/07/10 08:11:42;;;;;;;0.55;0.30;;;;;;;16.99;64.10;100980.66;5066925;28;20045;-79
2023/07/10 08:14:11;;;;;;;0.20;0.20;;;;;;;16.93;64.38;100978.88;5062187;28;20079;-78
2023/07/10 08:16:40;;;;;;;0.35;0.30;;;;;;;16.92;64.10;100982.34;5065428;28;20037;-78
2023/07/10 08:19:08;;;;;;;2.13;0.38;;;;;;;16.88;64.57;100980.59;5060482;28;20049;-79
2023/07/10 08:21:38;;;;;;;0.43;0.40;;;;;;;16.85;65.27;100982.28;5069032;28;20052;-78
2023/07/10 08:24:07;;;;;;;0.43;0.20;;;;;;;16.81;64.86;100984.00;5069861;28;20059;-78
2023/07/10 08:26:36;;;;;;;0.32;0.30;;;;;;;16.76;65.89;100990.91;5067325;28;20045;-79
2023/07/10 08:29:26;;;;;;;0.40;0.30;;;;;;;16.72;66.32;100978.66;5059889;28;20492;-78
2023/07/10 08:31:55;;;;;;;1.52;0.45;;;;;;;16.63;67.46;100989.03;5058077;28;20048;-79
2023/07/10 08:34:25;;;;;;;0.63;0.30;;;;;;;16.49;67.32;100989.81;5063139;28;20102;-80
2023/07/10 08:36:56;;;;;;;0.57;0.30;;;;;;;16.44;67.41;100994.09;5057858;28;20489;-77
2023/07/10 08:39:32;;;;;;;1.05;0.38;;;;;;;16.43;67.48;100996.72;5070731;28;20558;-80
2023/07/10 08:42:05;;;;;;;1.05;0.50;;;;;;;16.32;68.07;100994.88;5064164;28;20048;-79
2023/07/10 08:44:36;;;;;;;0.35;0.22;;;;;;;16.24;68.18;101000.88;5070069;28;20048;-79
2023/07/10 08:47:13;;;;;;;0.50;0.50;;;;;;;16.18;69.02;100995.59;5064275;28;20091;-80
2023/07/10 08:49:53;;;;;;;0.38;0.30;;;;;;;16.17;68.66;100993.84;5071754;28;20040;-80
2023/07/10 08:52:33;;;;;;;0.90;0.38;;;;;;;16.18;68.20;100998.22;5065047;28;20060;-79
2023/07/10 08:55:03;;;;;;;1.75;0.35;;;;;;;16.19;68.84;101002.56;5072339;28;20048;-79
2023/07/10 08:57:35;;;;;;;0.73;0.30;;;;;;;16.17;67.84;101004.28;5069302;28;20735;-79
2023/07/10 09:00:08;;;;;;;2.67;0.47;;;;;;;16.17;68.81;101004.28;5069223;28;20059;-79
2023/07/10 09:02:42;;;;;;;0.68;0.50;;;;;;;16.12;69.30;101002.50;5065980;28;20045;-80
2023/07/10 09:05:19;;;;;;;0.63;0.20;;;;;;;16.09;68.97;101009.44;5065382;28;20522;-79
2023/07/10 09:07:51;;;;;;;0.35;0.35;;;;;;;16.05;69.28;101008.50;5065825;28;20041;-80
2023/07/10 09:10:24;;;;;;;0.20;0.20;;;;;;;16.02;69.57;101008.47;5066946;28;20078;-79
2023/07/10 09:12:55;;;;;;;0.55;0.32;;;;;;;15.98;69.13;101009.31;5068361;28;20415;-78
2023/07/10 09:15:26;;;;;;;0.65;0.30;;;;;;;15.95;69.52;101013.63;5070091;28;20040;-80
2023/07/10 09:18:04;;;;;;;0.35;0.30;;;;;;;15.92;69.55;101017.09;5079116;28;20041;-78
2023/07/10 09:20:37;;;;;;;0.30;0.25;;;;;;;15.91;69.93;101023.13;5068350;28;20048;-78
2023/07/10 09:23:14;;;;;;;;;;;;;;;15.86;70.53;101025.69;5071187;28;20102;-78
2023/07/10 09:25:43;;;;;;;0.40;0.30;;;;;;;15.83;70.32;101022.19;5065529;28;19921;-79
2023/07/10 09:28:12;;;;;;;0.80;0.20;;;;;;;15.80;70.12;101035.19;5063906;28;20045;-79
2023/07/10 09:30:53;;;;;;;0.88;0.28;;;;;;;15.73;70.49;101034.22;5063759;28;20075;-80
2023/07/10 09:33:22;;;;;;;0.20;0.20;;;;;;;15.69;70.55;101038.50;5068370;28;20123;-80
2023/07/10 09:35:51;;;;;;;1.90;0.40;;;;;;;15.68;70.61;101035.88;5073847;27;20045;-78
2023/07/10 09:38:22;;;;;;;3.33;0.38;;;;;;;15.66;71.25;101041.06;5064860;28;20489;-80
2023/07/10 09:40:52;;;;;;;0.40;0.37;;;;;;;15.62;71.08;101036.69;5067810;28;20049;-80
2023/07/10 09:43:22;;;;;;;0.55;0.20;;;;;;;15.60;71.42;101030.56;5064392;28;20112;-80
2023/07/10 09:45:52;;;;;;;1.83;0.50;;;;;;;15.56;71.22;101036.59;5066111;28;20052;-80
2023/07/10 09:48:35;;;;;;;0.50;0.30;;;;;;;15.53;71.42;101028.72;5068766;28;20362;-81
2023/07/10 09:51:05;;;;;;;0.25;0.25;;;;;;;15.50;72.22;101028.66;5062968;28;20049;-80
2023/07/10 09:53:41;;;;;;;3.42;0.43;;;;;;;15.47;71.66;101033.84;5068420;28;20629;-79
2023/07/10 09:56:10;;;;;;;1.10;0.30;;;;;;;15.44;71.55;101036.44;5069285;28;20049;-80
2023/07/10 09:58:47;;;;;;;1.10;0.30;;;;;;;15.41;72.24;101036.38;5068558;28;20045;-80
2023/07/10 10:01:18;;;;;;;0.10;0.10;;;;;;;15.38;71.82;101033.72;5067889;28;20490;-79
2023/07/10 10:03:47;;;;;;;0.95;0.30;;;;;;;15.34;72.32;101037.13;5066712;28;20044;-80
2023/07/10 10:06:22;;;;;;;0.40;0.30;;;;;;;15.28;72.43;101036.19;5069737;28;20316;-80
2023/07/10 10:08:53;;;;;;;0.30;0.20;;;;;;;15.25;72.63;101046.56;5068835;28;20079;-80
2023/07/10 10:11:34;;;;;;;0.30;0.30;;;;;;;15.23;72.86;101043.09;5082606;28;20044;-79
2023/07/10 10:14:07;;;;;;;0.20;0.20;;;;;;;15.20;73.52;101047.34;5067135;28;20658;-80
2023/07/10 10:16:43;;;;;;;0.20;0.20;;;;;;;15.17;73.16;101042.97;5066841;28;20497;-80
2023/07/10 10:19:18;;;;;;;0.30;0.30;;;;;;;15.14;73.43;101042.94;5067689;28;20317;-79
2023/07/10 10:21:47;;;;;;;0.30;0.30;;;;;;;15.12;73.88;101041.13;5063225;28;20052;-80
2023/07/10 10:24:17;;;;;;;0.28;0.28;;;;;;;15.08;74.07;101048.91;5064562;28;20041;-81
2023/07/10 10:27:10;;;;;;;0.47;0.47;;;;;;;15.04;74.87;101049.72;5060356;28;20048;-80
2023/07/10 10:29:48;;;;;;;;;;;;;;;15.00;74.23;101050.56;5070050;28;20088;-80
2023/07/10 10:32:30;;;;;;;0.73;0.30;;;;;;;14.94;74.82;101049.56;5068307;28;19920;-80
2023/07/10 10:35:09;;;;;;;0.50;0.50;;;;;;;14.92;74.98;101061.69;5060269;27;20045;-77
2023/07/10 10:38:01;;;;;;;1.45;0.35;;;;;;;14.88;74.96;101066.81;5046664;28;20052;-81
2023/07/10 10:40:40;;;;;;;0.20;0.20;;;;;;;14.87;75.51;101074.63;5049088;28;20731;-80
2023/07/10 10:43:29;;;;;;;0.88;0.30;;;;;;;14.87;75.82;101080.72;5046799;28;20056;-81
2023/07/10 10:46:05;;;;;;;0.22;0.22;;;;;;;14.84;77.38;101080.69;5043642;28;20052;-79
2023/07/10 10:48:43;;;;;;;0.52;0.30;;;;;;;14.82;78.15;101074.56;5047375;28;20048;-77
2023/07/10 10:51:24;;;;;;;0.17;0.17;;;;;;;14.84;78.36;101083.28;5043520;28;20072;-80
2023/07/10 10:54:02;;;;;;;1.08;0.43;;;;;;;14.86;78.18;101081.56;5041975;28;20130;-82
2023/07/10 10:56:36;;;;;;;0.73;0.30;;;;;;;14.90;78.19;101081.63;5044127;28;20132;-80
2023/07/10 10:59:26;;;;;;;0.57;0.40;;;;;;;14.93;78.19;101086.88;5045138;28;20063;-79
2023/07/10 11:02:01;;;;;;;1.38;0.40;;;;;;;14.93;77.87;101092.09;5043438;28;20048;-79
2023/07/10 11:04:37;;;;;;;0.93;0.40;;;;;;;14.94;78.09;101092.13;5059880;28;20048;-79
2023/07/10 11:07:09;;;;;;;0.80;0.30;;;;;;;14.96;78.12;101090.44;5055371;28;20071;-78
2023/07/10 11:09:41;;;;;;;2.05;0.68;;;;;;;14.94;77.77;101092.13;5049188;28;20045;-77
2023/07/10 11:12:19;;;;;;;0.50;0.40;;;;;;;14.90;79.02;101092.91;5043053;28;20068;-78
2023/07/10 11:14:48;;;;;;;0.52;0.30;;;;;;;14.85;78.86;101092.84;5044984;28;20045;-81
2023/07/10 11:17:17;;;;;;;0.20;0.20;;;;;;;14.89;78.93;101083.38;5045026;28;20044;-79
2023/07/10 11:19:48;;;;;;;0.77;0.43;;;;;;;14.91;80.43;101085.97;5044902;28;20102;-78
2023/07/10 11:22:29;;;;;;;1.50;0.30;;;;;;;14.90;80.36;101079.03;5037812;28;20045;-78
2023/07/10 11:24:58;;;;;;;0.40;0.30;;;;;;;14.87;80.62;101080.72;5043993;28;20063;-79
2023/07/10 11:27:38;;;;;;;0.25;0.25;;;;;;;14.90;80.12;101081.63;5040653;28;20053;-77
2023/07/10 11:30:12;;;;;;;1.38;0.30;;;;;;;14.93;80.21;101087.75;5046036;28;20487;-79
2023/07/10 11:32:57;;;;;;;0.52;0.40;;;;;;;14.96;80.03;101085.22;5043624;28;20516;-79
2023/07/10 11:36:13;;;;;;;1.00;0.35;;;;;;;14.99;79.21;101071.34;5043979;27;20526;-79
2023/07/10 11:38:57;;;;;;;1.45;0.47;;;;;;;15.11;78.63;101087.19;5041871;28;20073;-78
2023/07/10 11:41:28;;;;;;;3.58;0.40;;;;;;;15.16;78.83;101090.72;5041644;28;20068;-78
2023/07/10 11:44:19;;;;;;;0.22;0.22;;;;;;;15.17;79.01;101092.50;5044568;28;20044;-79
2023/07/10 11:47:19;;;;;;;0.43;0.28;;;;;;;15.21;79.14;101091.72;5040123;28;20060;-79